createdAt,value
2016-09-21T00:00:24.550Z,1009.75
2016-09-21T00:01:23.998Z,1009.76
2016-09-21T00:02:24.356Z,1009.77
2016-09-21T00:03:24.325Z,1009.79
2016-09-21T00:04:24.471Z,1009.76
2016-09-21T00:05:24.261Z,1009.78
2016-09-21T00:06:24.267Z,1009.79
2016-09-21T00:07:24.494Z,1009.77
2016-09-21T00:08:24.394Z,1009.81
2016-09-21T00:09:24.091Z,1009.8
2016-09-21T00:10:24.456Z,1009.83
2016-09-21T00:11:24.156Z,1009.81
2016-09-21T00:12:24.354Z,1009.83
2016-09-21T00:13:24.587Z,1009.82
2016-09-21T00:14:24.582Z,1009.78
2016-09-21T00:15:24.693Z,1009.8
2016-09-21T00:16:24.482Z,1009.83
2016-09-21T00:17:24.394Z,1009.79
2016-09-21T00:18:24.933Z,1009.75
2016-09-21T00:19:24.264Z,1009.8
2016-09-21T00:20:24.513Z,1009.81
2016-09-21T00:21:24.464Z,1009.83
2016-09-21T00:22:25.865Z,1009.85
2016-09-21T00:23:24.673Z,1009.83
2016-09-21T00:24:24.992Z,1009.84
2016-09-21T00:25:24.395Z,1009.78
2016-09-21T00:26:24.757Z,1009.85
2016-09-21T00:27:24.801Z,1009.79
2016-09-21T00:28:24.547Z,1009.84
2016-09-21T00:29:25.036Z,1009.83
2016-09-21T00:30:25.046Z,1009.79
2016-09-21T00:31:24.985Z,1009.82
2016-09-21T00:32:24.545Z,1009.83
2016-09-21T00:33:24.881Z,1009.84
2016-09-21T00:34:24.586Z,1009.86
2016-09-21T00:35:24.933Z,1009.8
2016-09-21T00:36:24.894Z,1009.8
2016-09-21T00:37:24.693Z,1009.8
2016-09-21T00:38:25.075Z,1009.78
2016-09-21T00:39:24.986Z,1009.77
2016-09-21T00:40:24.818Z,1009.8
2016-09-21T00:41:25.258Z,1009.82
2016-09-21T00:42:24.864Z,1009.78
2016-09-21T00:43:24.869Z,1009.86
2016-09-21T00:44:25.213Z,1009.81
2016-09-21T00:45:24.893Z,1009.83
2016-09-21T00:46:25.389Z,1009.8
2016-09-21T00:47:25.769Z,1009.79
2016-09-21T00:48:25.269Z,1009.78
2016-09-21T00:49:24.777Z,1009.77
2016-09-21T00:50:25.785Z,1009.83
2016-09-21T00:51:25.228Z,1009.85
2016-09-21T00:52:25.285Z,1009.83
2016-09-21T00:53:24.900Z,1009.84
2016-09-21T00:54:24.992Z,1009.76
2016-09-21T00:55:25.134Z,1009.78
2016-09-21T00:56:25.342Z,1009.79
2016-09-21T00:57:25.482Z,1009.77
2016-09-21T00:58:25.201Z,1009.8
2016-09-21T00:59:26.209Z,1009.81
2016-09-21T01:00:25.527Z,1009.77
2016-09-21T01:01:25.590Z,1009.78
2016-09-21T01:02:25.553Z,1009.82
2016-09-21T01:03:25.733Z,1009.8
2016-09-21T01:04:25.461Z,1009.8
2016-09-21T01:05:25.453Z,1009.79
2016-09-21T01:06:25.932Z,1009.76
2016-09-21T01:07:25.426Z,1009.73
2016-09-21T01:08:25.344Z,1009.71
2016-09-21T01:09:25.307Z,1009.76
2016-09-21T01:10:25.284Z,1009.74
2016-09-21T01:11:25.551Z,1009.71
2016-09-21T01:12:25.579Z,1009.67
2016-09-21T01:13:25.702Z,1009.68
2016-09-21T01:14:25.338Z,1009.67
2016-09-21T01:15:25.968Z,1009.67
2016-09-21T01:16:25.438Z,1009.62
2016-09-21T01:17:26.233Z,1009.63
2016-09-21T01:18:25.470Z,1009.64
2016-09-21T01:19:25.442Z,1009.63
2016-09-21T01:20:25.856Z,1009.61
2016-09-21T01:21:26.052Z,1009.6
2016-09-21T01:22:25.603Z,1009.59
2016-09-21T01:23:25.791Z,1009.57
2016-09-21T01:24:25.651Z,1009.57
2016-09-21T01:25:26.054Z,1009.55
2016-09-21T01:26:25.998Z,1009.56
2016-09-21T01:27:26.430Z,1009.54
2016-09-21T01:28:25.967Z,1009.54
2016-09-21T01:29:25.935Z,1009.51
2016-09-21T01:30:25.720Z,1009.52
2016-09-21T01:31:26.060Z,1009.55
2016-09-21T01:32:25.864Z,1009.54
2016-09-21T01:33:26.271Z,1009.54
2016-09-21T01:34:25.885Z,1009.58
2016-09-21T01:35:25.919Z,1009.58
2016-09-21T01:36:26.266Z,1009.54
2016-09-21T01:37:26.295Z,1009.59
2016-09-21T01:38:26.817Z,1009.54
2016-09-21T01:39:26.347Z,1009.54
2016-09-21T01:40:26.530Z,1009.57
2016-09-21T01:41:26.077Z,1009.57
2016-09-21T01:42:26.200Z,1009.6
2016-09-21T01:43:26.133Z,1009.57
2016-09-21T01:44:26.063Z,1009.59
2016-09-21T01:45:26.219Z,1009.6
2016-09-21T01:46:26.526Z,1009.58
2016-09-21T01:47:26.052Z,1009.61
2016-09-21T01:48:26.228Z,1009.59
2016-09-21T01:49:26.080Z,1009.59
2016-09-21T01:50:26.519Z,1009.57
2016-09-21T01:51:26.897Z,1009.6
2016-09-21T01:52:26.314Z,1009.59
2016-09-21T01:53:26.174Z,1009.62
2016-09-21T01:54:27.045Z,1009.58
2016-09-21T01:55:26.308Z,1009.59
2016-09-21T01:56:26.619Z,1009.6
2016-09-21T01:57:26.258Z,1009.57
2016-09-21T01:58:26.641Z,1009.55
2016-09-21T01:59:26.482Z,1009.58
2016-09-21T02:00:26.418Z,1009.57
2016-09-21T02:01:26.212Z,1009.57
2016-09-21T02:02:26.820Z,1009.56
2016-09-21T02:03:26.447Z,1009.55
2016-09-21T02:04:26.583Z,1009.51
2016-09-21T02:05:26.518Z,1009.53
2016-09-21T02:06:26.389Z,1009.51
2016-09-21T02:07:26.368Z,1009.48
2016-09-21T02:08:26.588Z,1009.48
2016-09-21T02:09:26.665Z,1009.46
2016-09-21T02:10:27.105Z,1009.52
2016-09-21T02:11:26.874Z,1009.5
2016-09-21T02:12:26.642Z,1009.5
2016-09-21T02:13:26.639Z,1009.53
2016-09-21T02:14:26.639Z,1009.51
2016-09-21T02:15:27.179Z,1009.48
2016-09-21T02:16:26.933Z,1009.46
2016-09-21T02:17:26.646Z,1009.48
2016-09-21T02:18:27.187Z,1009.47
2016-09-21T02:19:26.680Z,1009.47
2016-09-21T02:20:27.018Z,1009.46
2016-09-21T02:21:26.845Z,1009.49
2016-09-21T02:22:26.688Z,1009.47
2016-09-21T02:23:26.707Z,1009.51
2016-09-21T02:24:27.166Z,1009.48
2016-09-21T02:25:26.768Z,1009.5
2016-09-21T02:26:27.403Z,1009.47
2016-09-21T02:27:26.945Z,1009.46
2016-09-21T02:28:26.914Z,1009.49
2016-09-21T02:29:27.192Z,1009.46
2016-09-21T02:30:27.027Z,1009.47
2016-09-21T02:31:26.889Z,1009.45
2016-09-21T02:32:28.085Z,1009.49
2016-09-21T02:33:27.414Z,1009.46
2016-09-21T02:34:27.049Z,1009.48
2016-09-21T02:35:27.018Z,1009.46
2016-09-21T02:36:27.190Z,1009.45
2016-09-21T02:37:26.851Z,1009.46
2016-09-21T02:38:27.340Z,1009.49
2016-09-21T02:39:27.707Z,1009.47
2016-09-21T02:40:27.421Z,1009.48
2016-09-21T02:41:27.622Z,1009.5
2016-09-21T02:42:27.346Z,1009.53
2016-09-21T02:43:27.900Z,1009.49
2016-09-21T02:44:27.664Z,1009.52
2016-09-21T02:45:27.325Z,1009.57
2016-09-21T02:46:27.576Z,1009.54
2016-09-21T02:47:27.646Z,1009.56
2016-09-21T02:48:28.173Z,1009.54
2016-09-21T02:49:27.584Z,1009.57
2016-09-21T02:50:27.737Z,1009.54
2016-09-21T02:51:28.483Z,1009.55
2016-09-21T02:52:27.870Z,1009.55
2016-09-21T02:53:27.964Z,1009.52
2016-09-21T02:54:27.695Z,1009.58
2016-09-21T02:55:27.675Z,1009.54
2016-09-21T02:56:27.759Z,1009.53
2016-09-21T02:57:28.075Z,1009.54
2016-09-21T02:58:27.666Z,1009.49
2016-09-21T02:59:27.626Z,1009.49
2016-09-21T03:00:27.829Z,1009.52
2016-09-21T03:01:27.390Z,1009.48
2016-09-21T03:02:27.672Z,1009.52
2016-09-21T03:03:27.925Z,1009.49
2016-09-21T03:04:27.486Z,1009.5
2016-09-21T03:05:27.795Z,1009.51
2016-09-21T03:06:27.518Z,1009.53
2016-09-21T03:07:27.972Z,1009.53
2016-09-21T03:08:28.164Z,1009.55
2016-09-21T03:09:27.916Z,1009.55
2016-09-21T03:10:27.687Z,1009.55
2016-09-21T03:11:28.532Z,1009.5
2016-09-21T03:12:28.041Z,1009.5
2016-09-21T03:13:27.986Z,1009.48
2016-09-21T03:14:28.000Z,1009.49
2016-09-21T03:15:27.858Z,1009.51
2016-09-21T03:16:27.779Z,1009.5
2016-09-21T03:17:27.909Z,1009.48
2016-09-21T03:18:27.900Z,1009.5
2016-09-21T03:19:28.310Z,1009.48
2016-09-21T03:20:28.025Z,1009.54
2016-09-21T03:21:27.947Z,1009.54
2016-09-21T03:22:27.862Z,1009.54
2016-09-21T03:23:28.332Z,1009.57
2016-09-21T03:24:28.088Z,1009.54
2016-09-21T03:25:27.866Z,1009.53
2016-09-21T03:26:28.059Z,1009.54
2016-09-21T03:27:28.371Z,1009.52
2016-09-21T03:28:27.888Z,1009.56
2016-09-21T03:29:28.361Z,1009.57
2016-09-21T03:30:28.174Z,1009.59
2016-09-21T03:31:28.661Z,1009.6
2016-09-21T03:32:28.872Z,1009.59
2016-09-21T03:33:28.248Z,1009.61
2016-09-21T03:34:28.617Z,1009.66
2016-09-21T03:35:28.473Z,1009.62
2016-09-21T03:36:28.273Z,1009.6
2016-09-21T03:37:29.629Z,1009.58
2016-09-21T03:38:28.365Z,1009.59
2016-09-21T03:39:28.415Z,1009.58
2016-09-21T03:40:29.133Z,1009.6
2016-09-21T03:41:28.427Z,1009.56
2016-09-21T03:42:28.385Z,1009.56
2016-09-21T03:43:28.525Z,1009.56
2016-09-21T03:44:28.601Z,1009.59
2016-09-21T03:45:28.568Z,1009.56
2016-09-21T03:46:28.425Z,1009.59
2016-09-21T03:47:28.535Z,1009.57
2016-09-21T03:48:28.428Z,1009.55
2016-09-21T03:49:28.903Z,1009.55
2016-09-21T03:50:28.574Z,1009.58
2016-09-21T03:51:28.911Z,1009.61
2016-09-21T03:52:28.647Z,1009.62
2016-09-21T03:53:28.699Z,1009.62
2016-09-21T03:54:28.572Z,1009.61
2016-09-21T03:55:28.762Z,1009.64
2016-09-21T03:56:28.628Z,1009.63
2016-09-21T03:57:29.232Z,1009.6
2016-09-21T03:58:28.586Z,1009.62
2016-09-21T03:59:29.145Z,1009.64
2016-09-21T04:00:28.671Z,1009.64
2016-09-21T04:01:28.599Z,1009.62
2016-09-21T04:02:28.447Z,1009.63
2016-09-21T04:03:28.990Z,1009.64
2016-09-21T04:04:29.683Z,1009.62
2016-09-21T04:05:28.795Z,1009.63
2016-09-21T04:06:28.662Z,1009.63
2016-09-21T04:07:28.830Z,1009.68
2016-09-21T04:08:29.140Z,1009.66
2016-09-21T04:09:28.692Z,1009.67
2016-09-21T04:10:29.553Z,1009.74
2016-09-21T04:11:28.753Z,1009.71
2016-09-21T04:12:29.233Z,1009.72
2016-09-21T04:13:29.748Z,1009.69
2016-09-21T04:14:29.344Z,1009.7
2016-09-21T04:15:29.788Z,1009.76
2016-09-21T04:16:29.044Z,1009.74
2016-09-21T04:17:29.331Z,1009.72
2016-09-21T04:18:29.421Z,1009.73
2016-09-21T04:19:29.155Z,1009.75
2016-09-21T04:20:29.124Z,1009.73
2016-09-21T04:21:29.317Z,1009.76
2016-09-21T04:22:29.574Z,1009.74
2016-09-21T04:23:29.469Z,1009.71
2016-09-21T04:24:29.800Z,1009.68
2016-09-21T04:25:29.165Z,1009.7
2016-09-21T04:26:29.536Z,1009.67
2016-09-21T04:27:29.655Z,1009.72
2016-09-21T04:28:29.798Z,1009.69
2016-09-21T04:29:29.729Z,1009.7
2016-09-21T04:30:29.668Z,1009.73
2016-09-21T04:31:29.169Z,1009.67
2016-09-21T04:32:29.597Z,1009.67
2016-09-21T04:33:29.512Z,1009.68
2016-09-21T04:34:29.647Z,1009.71
2016-09-21T04:35:30.215Z,1009.73
2016-09-21T04:36:29.349Z,1009.74
2016-09-21T04:37:29.294Z,1009.72
2016-09-21T04:38:29.406Z,1009.73
2016-09-21T04:39:30.153Z,1009.71
2016-09-21T04:40:29.748Z,1009.71
2016-09-21T04:41:29.604Z,1009.75
2016-09-21T04:42:30.089Z,1009.73
2016-09-21T04:43:29.463Z,1009.75
2016-09-21T04:44:29.535Z,1009.71
2016-09-21T04:45:29.533Z,1009.72
2016-09-21T04:46:30.277Z,1009.72
2016-09-21T04:47:29.480Z,1009.74
2016-09-21T04:48:29.644Z,1009.75
2016-09-21T04:49:29.999Z,1009.73
2016-09-21T04:50:29.478Z,1009.76
2016-09-21T04:51:29.827Z,1009.76
2016-09-21T04:52:30.619Z,1009.76
2016-09-21T04:53:29.904Z,1009.77
2016-09-21T04:54:29.987Z,1009.78
2016-09-21T04:55:29.904Z,1009.79
2016-09-21T04:56:29.489Z,1009.79
2016-09-21T04:57:30.139Z,1009.82
2016-09-21T04:58:30.253Z,1009.82
2016-09-21T04:59:30.017Z,1009.81
2016-09-21T05:00:29.904Z,1009.84
2016-09-21T05:01:29.781Z,1009.81
2016-09-21T05:02:29.773Z,1009.84
2016-09-21T05:03:31.012Z,1009.82
2016-09-21T05:04:30.045Z,1009.83
2016-09-21T05:05:29.846Z,1009.86
2016-09-21T05:06:30.486Z,1009.85
2016-09-21T05:07:30.501Z,1009.85
2016-09-21T05:08:30.830Z,1009.9
2016-09-21T05:09:30.693Z,1009.87
2016-09-21T05:10:30.155Z,1009.88
2016-09-21T05:11:29.949Z,1009.89
2016-09-21T05:12:30.069Z,1009.87
2016-09-21T05:13:29.974Z,1009.86
2016-09-21T05:14:30.241Z,1009.86
2016-09-21T05:15:31.027Z,1009.84
2016-09-21T05:16:30.126Z,1009.84
2016-09-21T05:17:30.589Z,1009.84
2016-09-21T05:18:29.921Z,1009.84
2016-09-21T05:19:30.608Z,1009.88
2016-09-21T05:20:29.887Z,1009.84
2016-09-21T05:21:30.102Z,1009.83
2016-09-21T05:22:30.671Z,1009.85
2016-09-21T05:23:30.691Z,1009.88
2016-09-21T05:24:30.266Z,1009.83
2016-09-21T05:25:30.657Z,1009.88
2016-09-21T05:26:30.395Z,1009.84
2016-09-21T05:27:30.383Z,1009.86
2016-09-21T05:28:30.349Z,1009.86
2016-09-21T05:29:30.250Z,1009.91
2016-09-21T05:30:30.506Z,1009.9
2016-09-21T05:31:30.517Z,1009.96
2016-09-21T05:32:30.371Z,1009.91
2016-09-21T05:33:30.633Z,1009.94
2016-09-21T05:34:31.338Z,1009.94
2016-09-21T05:35:30.705Z,1009.95
2016-09-21T05:36:31.258Z,1009.97
2016-09-21T05:37:30.575Z,1010
2016-09-21T05:38:30.512Z,1009.97
2016-09-21T05:39:32.370Z,1010.02
2016-09-21T05:40:30.545Z,1009.99
2016-09-21T05:41:30.655Z,1010
2016-09-21T05:42:30.908Z,1009.95
2016-09-21T05:43:30.493Z,1010.01
2016-09-21T05:44:31.103Z,1010.02
2016-09-21T05:45:30.594Z,1010.01
2016-09-21T05:46:31.809Z,1010.05
2016-09-21T05:47:30.438Z,1010.06
2016-09-21T05:48:31.384Z,1010.07
2016-09-21T05:49:30.826Z,1010.08
2016-09-21T05:50:31.382Z,1010.07
2016-09-21T05:51:30.965Z,1010.04
2016-09-21T05:52:30.948Z,1010.08
2016-09-21T05:53:30.914Z,1010.07
2016-09-21T05:54:31.391Z,1010.08
2016-09-21T05:55:30.486Z,1010.1
2016-09-21T05:56:30.761Z,1010.08
2016-09-21T05:57:30.713Z,1010.08
2016-09-21T05:58:30.755Z,1010.1
2016-09-21T05:59:30.832Z,1010.07
2016-09-21T06:00:30.859Z,1010.11
2016-09-21T06:01:30.999Z,1010.1
2016-09-21T06:02:30.829Z,1010.1
2016-09-21T06:03:30.909Z,1010.09
2016-09-21T06:04:31.486Z,1010.09
2016-09-21T06:05:31.626Z,1010.1
2016-09-21T06:06:32.188Z,1010.12
2016-09-21T06:07:31.020Z,1010.14
2016-09-21T06:08:31.085Z,1010.09
2016-09-21T06:09:30.970Z,1010.06
2016-09-21T06:10:30.923Z,1010.08
2016-09-21T06:11:30.970Z,1010.11
2016-09-21T06:12:31.082Z,1010.11
2016-09-21T06:13:31.174Z,1010.12
2016-09-21T06:14:31.168Z,1010.14
2016-09-21T06:15:31.286Z,1010.17
2016-09-21T06:16:31.310Z,1010.14
2016-09-21T06:17:31.689Z,1010.18
2016-09-21T06:18:31.297Z,1010.18
2016-09-21T06:19:31.180Z,1010.19
2016-09-21T06:20:31.276Z,1010.21
2016-09-21T06:21:30.931Z,1010.2
2016-09-21T06:22:31.690Z,1010.18
2016-09-21T06:23:31.460Z,1010.21
2016-09-21T06:24:32.281Z,1010.2
2016-09-21T06:25:31.603Z,1010.2
2016-09-21T06:26:32.656Z,1010.17
2016-09-21T06:27:31.537Z,1010.22
2016-09-21T06:28:31.503Z,1010.18
2016-09-21T06:29:31.608Z,1010.21
2016-09-21T06:30:31.320Z,1010.23
2016-09-21T06:31:31.217Z,1010.2
2016-09-21T06:32:31.656Z,1010.18
2016-09-21T06:33:32.784Z,1010.21
2016-09-21T06:34:31.950Z,1010.21
2016-09-21T06:35:32.122Z,1010.23
2016-09-21T06:36:31.693Z,1010.25
2016-09-21T06:37:32.129Z,1010.23
2016-09-21T06:38:31.656Z,1010.23
2016-09-21T06:39:31.477Z,1010.23
2016-09-21T06:40:31.426Z,1010.23
2016-09-21T06:41:32.190Z,1010.26
2016-09-21T06:42:31.647Z,1010.25
2016-09-21T06:43:31.979Z,1010.24
2016-09-21T06:44:32.139Z,1010.23
2016-09-21T06:45:32.464Z,1010.28
2016-09-21T06:46:32.365Z,1010.21
2016-09-21T06:47:31.532Z,1010.21
2016-09-21T06:48:32.042Z,1010.21
2016-09-21T06:49:31.838Z,1010.22
2016-09-21T06:50:31.960Z,1010.27
2016-09-21T06:51:32.487Z,1010.24
2016-09-21T06:52:31.910Z,1010.24
2016-09-21T06:53:32.787Z,1010.23
2016-09-21T06:54:32.538Z,1010.26
2016-09-21T06:55:31.699Z,1010.26
2016-09-21T06:56:32.423Z,1010.26
2016-09-21T06:57:31.881Z,1010.3
2016-09-21T06:58:32.132Z,1010.29
2016-09-21T06:59:32.290Z,1010.31
2016-09-21T07:00:32.706Z,1010.34
2016-09-21T07:01:31.962Z,1010.28
2016-09-21T07:02:32.382Z,1010.3
2016-09-21T07:03:32.178Z,1010.31
2016-09-21T07:04:32.276Z,1010.3
2016-09-21T07:05:32.706Z,1010.32
2016-09-21T07:06:32.306Z,1010.29
2016-09-21T07:07:33.188Z,1010.31
2016-09-21T07:08:32.431Z,1010.29
2016-09-21T07:09:31.889Z,1010.32
2016-09-21T07:10:32.253Z,1010.31
2016-09-21T07:11:32.613Z,1010.37
2016-09-21T07:12:32.765Z,1010.36
2016-09-21T07:13:32.255Z,1010.35
2016-09-21T07:14:32.369Z,1010.38
2016-09-21T07:15:32.302Z,1010.38
2016-09-21T07:16:32.438Z,1010.45
2016-09-21T07:17:32.351Z,1010.48
2016-09-21T07:18:32.877Z,1010.5
2016-09-21T07:19:32.230Z,1010.5
2016-09-21T07:20:32.846Z,1010.55
2016-09-21T07:21:32.853Z,1010.67
2016-09-21T07:22:32.318Z,1010.83
2016-09-21T07:23:32.408Z,1010.86
2016-09-21T07:24:32.246Z,1010.9
2016-09-21T07:25:32.273Z,1010.87
2016-09-21T07:26:32.558Z,1010.84
2016-09-21T07:27:33.709Z,1010.76
2016-09-21T07:28:32.606Z,1010.76
2016-09-21T07:29:32.277Z,1010.79
2016-09-21T07:30:32.698Z,1010.64
2016-09-21T07:31:32.554Z,1010.52
2016-09-21T07:32:33.301Z,1010.45
2016-09-21T07:33:33.313Z,1010.46
2016-09-21T07:34:32.654Z,1010.45
2016-09-21T07:35:32.940Z,1010.45
2016-09-21T07:36:32.777Z,1010.46
2016-09-21T07:37:32.796Z,1010.46
2016-09-21T07:38:32.471Z,1010.43
2016-09-21T07:39:32.755Z,1010.45
2016-09-21T07:40:33.067Z,1010.6
2016-09-21T07:41:32.841Z,1010.77
2016-09-21T07:42:32.647Z,1010.84
2016-09-21T07:43:33.121Z,1010.8
2016-09-21T07:44:32.986Z,1010.76
2016-09-21T07:45:33.071Z,1010.71
2016-09-21T07:46:32.871Z,1010.67
2016-09-21T07:47:32.857Z,1010.65
2016-09-21T07:48:32.682Z,1010.6
2016-09-21T07:49:32.921Z,1010.5
2016-09-21T07:50:33.057Z,1010.48
2016-09-21T07:51:33.268Z,1010.51
2016-09-21T07:52:33.339Z,1010.47
2016-09-21T07:53:32.882Z,1010.47
2016-09-21T07:54:33.015Z,1010.47
2016-09-21T07:55:33.108Z,1010.51
2016-09-21T07:56:33.219Z,1010.54
2016-09-21T07:57:33.171Z,1010.5
2016-09-21T07:58:33.138Z,1010.5
2016-09-21T07:59:33.195Z,1010.55
2016-09-21T08:00:33.302Z,1010.54
2016-09-21T08:01:34.943Z,1010.48
2016-09-21T08:02:33.044Z,1010.55
2016-09-21T08:03:33.544Z,1010.52
2016-09-21T08:04:33.308Z,1010.54
2016-09-21T08:05:33.160Z,1010.54
2016-09-21T08:06:33.873Z,1010.53
2016-09-21T08:07:33.429Z,1010.54
2016-09-21T08:08:34.247Z,1010.52
2016-09-21T08:09:33.933Z,1010.53
2016-09-21T08:10:33.322Z,1010.55
2016-09-21T08:11:33.305Z,1010.61
2016-09-21T08:12:33.208Z,1010.57
2016-09-21T08:13:33.517Z,1010.57
2016-09-21T08:14:33.341Z,1010.59
2016-09-21T08:15:34.006Z,1010.6
2016-09-21T08:16:33.826Z,1010.55
2016-09-21T08:17:33.134Z,1010.55
2016-09-21T08:18:33.312Z,1010.57
2016-09-21T08:19:33.357Z,1010.55
2016-09-21T08:20:33.534Z,1010.55
2016-09-21T08:21:34.005Z,1010.56
2016-09-21T08:22:33.875Z,1010.57
2016-09-21T08:23:34.251Z,1010.57
2016-09-21T08:24:34.184Z,1010.51
2016-09-21T08:25:34.388Z,1010.54
2016-09-21T08:26:33.488Z,1010.52
2016-09-21T08:27:34.211Z,1010.57
2016-09-21T08:28:33.611Z,1010.46
2016-09-21T08:29:34.027Z,1010.46
2016-09-21T08:30:34.030Z,1010.48
2016-09-21T08:31:33.991Z,1010.48
2016-09-21T08:32:34.108Z,1010.46
2016-09-21T08:33:34.378Z,1010.49
2016-09-21T08:34:34.002Z,1010.52
2016-09-21T08:35:34.307Z,1010.48
2016-09-21T08:36:34.756Z,1010.51
2016-09-21T08:37:33.968Z,1010.49
2016-09-21T08:38:34.038Z,1010.5
2016-09-21T08:39:34.350Z,1010.48
2016-09-21T08:40:34.624Z,1010.51
2016-09-21T08:41:34.084Z,1010.49
2016-09-21T08:42:34.623Z,1010.5
2016-09-21T08:43:34.013Z,1010.51
2016-09-21T08:44:34.101Z,1010.5
2016-09-21T08:45:34.549Z,1010.5
2016-09-21T08:46:34.743Z,1010.54
2016-09-21T08:47:34.265Z,1010.56
2016-09-21T08:48:34.272Z,1010.49
2016-09-21T08:49:34.238Z,1010.54
2016-09-21T08:50:34.661Z,1010.49
2016-09-21T08:51:34.348Z,1010.5
2016-09-21T08:52:34.459Z,1010.5
2016-09-21T08:53:34.296Z,1010.51
2016-09-21T08:54:34.323Z,1010.51
2016-09-21T08:55:34.190Z,1010.5
2016-09-21T08:56:34.960Z,1010.48
2016-09-21T08:57:34.556Z,1010.49
2016-09-21T08:58:34.825Z,1010.46
2016-09-21T08:59:34.426Z,1010.48
2016-09-21T09:00:34.371Z,1010.46
2016-09-21T09:01:34.488Z,1010.47
2016-09-21T09:02:34.525Z,1010.45
2016-09-21T09:03:34.486Z,1010.44
2016-09-21T09:04:34.580Z,1010.42
2016-09-21T09:05:35.029Z,1010.47
2016-09-21T09:06:34.838Z,1010.39
2016-09-21T09:07:35.146Z,1010.36
2016-09-21T09:08:34.503Z,1010.37
2016-09-21T09:09:34.997Z,1010.42
2016-09-21T09:10:34.720Z,1010.4
2016-09-21T09:11:34.524Z,1010.39
2016-09-21T09:12:34.702Z,1010.35
2016-09-21T09:13:34.766Z,1010.39
2016-09-21T09:14:34.678Z,1010.38
2016-09-21T09:15:34.963Z,1010.37
2016-09-21T09:16:34.812Z,1010.35
2016-09-21T09:17:34.701Z,1010.31
2016-09-21T09:18:34.906Z,1010.35
2016-09-21T09:19:35.025Z,1010.37
2016-09-21T09:20:34.908Z,1010.37
2016-09-21T09:21:35.334Z,1010.36
2016-09-21T09:22:35.028Z,1010.33
2016-09-21T09:23:35.350Z,1010.33
2016-09-21T09:24:35.629Z,1010.33
2016-09-21T09:25:34.996Z,1010.29
2016-09-21T09:26:35.255Z,1010.25
2016-09-21T09:27:35.198Z,1010.35
2016-09-21T09:28:35.271Z,1010.35
2016-09-21T09:29:36.134Z,1010.33
2016-09-21T09:30:35.030Z,1010.36
2016-09-21T09:31:35.924Z,1010.36
2016-09-21T09:32:35.816Z,1010.34
2016-09-21T09:33:35.152Z,1010.37
2016-09-21T09:34:35.302Z,1010.36
2016-09-21T09:35:35.730Z,1010.36
2016-09-21T09:36:35.457Z,1010.35
2016-09-21T09:37:35.363Z,1010.37
2016-09-21T09:38:35.613Z,1010.36
2016-09-21T09:39:35.496Z,1010.37
2016-09-21T09:40:35.730Z,1010.39
2016-09-21T09:41:37.006Z,1010.37
2016-09-21T09:42:36.061Z,1010.34
2016-09-21T09:43:36.169Z,1010.34
2016-09-21T09:44:36.090Z,1010.35
2016-09-21T09:45:35.970Z,1010.35
2016-09-21T09:46:36.025Z,1010.36
2016-09-21T09:47:35.748Z,1010.38
2016-09-21T09:48:35.713Z,1010.37
2016-09-21T09:49:35.989Z,1010.35
2016-09-21T09:50:36.111Z,1010.35
2016-09-21T09:51:35.754Z,1010.36
2016-09-21T09:52:36.217Z,1010.34
2016-09-21T09:53:35.948Z,1010.35
2016-09-21T09:54:36.823Z,1010.37
2016-09-21T09:55:35.776Z,1010.4
2016-09-21T09:56:36.049Z,1010.41
2016-09-21T09:57:36.593Z,1010.39
2016-09-21T09:58:36.288Z,1010.41
2016-09-21T09:59:35.771Z,1010.39
2016-09-21T10:00:36.193Z,1010.38
2016-09-21T10:01:35.908Z,1010.41
2016-09-21T10:02:36.678Z,1010.38
2016-09-21T10:03:36.200Z,1010.39
2016-09-21T10:05:36.104Z,1010.36
2016-09-21T10:06:36.559Z,1010.39
2016-09-21T10:07:36.406Z,1010.36
2016-09-21T10:08:36.257Z,1010.37
2016-09-21T10:09:36.677Z,1010.37
2016-09-21T10:10:36.813Z,1010.39
2016-09-21T10:11:36.449Z,1010.37
2016-09-21T10:12:36.534Z,1010.39
2016-09-21T10:13:36.604Z,1010.39
2016-09-21T10:14:36.736Z,1010.43
2016-09-21T10:15:36.453Z,1010.44
2016-09-21T10:16:36.620Z,1010.46
2016-09-21T10:17:36.622Z,1010.43
2016-09-21T10:18:36.420Z,1010.44
2016-09-21T10:19:36.684Z,1010.43
2016-09-21T10:20:36.585Z,1010.44
2016-09-21T10:21:36.495Z,1010.47
2016-09-21T10:22:36.659Z,1010.43
2016-09-21T10:23:36.710Z,1010.44
2016-09-21T10:24:37.057Z,1010.42
2016-09-21T10:25:37.075Z,1010.46
2016-09-21T10:26:37.075Z,1010.45
2016-09-21T10:27:36.891Z,1010.44
2016-09-21T10:28:36.995Z,1010.41
2016-09-21T10:38:39.629Z,1010.47
2016-09-21T10:39:39.280Z,1010.41
2016-09-21T10:40:39.326Z,1010.39
2016-09-21T10:41:39.322Z,1010.38
2016-09-21T10:42:39.733Z,1010.36
2016-09-21T10:43:39.573Z,1010.38
2016-09-21T10:44:39.560Z,1010.39
2016-09-21T10:45:39.622Z,1010.36
2016-09-21T10:46:39.851Z,1010.33
2016-09-21T10:47:39.591Z,1010.33
2016-09-21T10:48:39.989Z,1010.32
2016-09-21T10:49:40.495Z,1010.3
2016-09-21T10:50:40.235Z,1010.29
2016-09-21T10:51:39.983Z,1010.34
2016-09-21T10:52:39.913Z,1010.36
2016-09-21T10:53:39.879Z,1010.33
2016-09-21T10:54:40.130Z,1010.32
2016-09-21T10:55:40.769Z,1010.33
2016-09-21T10:56:39.910Z,1010.32
2016-09-21T10:57:40.119Z,1010.35
2016-09-21T10:58:40.239Z,1010.28
2016-09-21T10:59:39.823Z,1010.3
2016-09-21T11:00:40.794Z,1010.29
2016-09-21T11:01:39.886Z,1010.21
2016-09-21T11:02:40.032Z,1010.16
2016-09-21T11:03:40.264Z,1010.14
2016-09-21T11:04:40.396Z,1010.13
2016-09-21T11:05:40.147Z,1010.12
2016-09-21T11:06:39.918Z,1010.13
2016-09-21T11:07:40.166Z,1010.08
2016-09-21T11:08:40.119Z,1010.14
2016-09-21T11:09:40.363Z,1010.13
2016-09-21T11:10:40.552Z,1010.13
2016-09-21T11:11:40.306Z,1010.17
2016-09-21T11:12:40.442Z,1010.18
2016-09-21T11:13:40.323Z,1010.2
2016-09-21T11:15:40.316Z,1010.2
2016-09-21T11:16:40.688Z,1010.19
2016-09-21T11:17:40.583Z,1010.16
2016-09-21T11:18:40.486Z,1010.17
2016-09-21T11:19:40.324Z,1010.17
2016-09-21T11:20:40.538Z,1010.18
2016-09-21T11:21:40.447Z,1010.19
2016-09-21T11:22:40.938Z,1010.24
2016-09-21T11:23:40.661Z,1010.2
2016-09-21T11:24:40.404Z,1010.27
2016-09-21T11:25:40.434Z,1010.26
2016-09-21T11:26:40.878Z,1010.29
2016-09-21T11:27:40.687Z,1010.35
2016-09-21T11:28:40.623Z,1010.32
2016-09-21T11:29:40.680Z,1010.35
2016-09-21T11:30:40.803Z,1010.38
2016-09-21T11:31:40.639Z,1010.37
2016-09-21T11:32:41.074Z,1010.39
2016-09-21T11:33:40.825Z,1010.35
2016-09-21T11:34:40.686Z,1010.35
2016-09-21T11:35:40.844Z,1010.32
2016-09-21T11:36:41.067Z,1010.35
2016-09-21T11:37:41.466Z,1010.27
2016-09-21T11:38:40.970Z,1010.22
2016-09-21T11:39:41.110Z,1010.23
2016-09-21T11:40:41.036Z,1010.19
2016-09-21T11:41:41.159Z,1010.15
2016-09-21T11:42:41.471Z,1010.11
2016-09-21T11:43:41.843Z,1010.08
2016-09-21T11:44:41.283Z,1010.05
2016-09-21T11:45:41.540Z,1009.98
2016-09-21T11:46:41.212Z,1009.96
2016-09-21T11:47:41.558Z,1009.94
2016-09-21T11:48:41.308Z,1009.89
2016-09-21T11:49:41.288Z,1009.9
2016-09-21T11:50:41.237Z,1009.92
2016-09-21T11:51:41.377Z,1009.9
2016-09-21T11:52:41.489Z,1009.91
2016-09-21T11:53:41.205Z,1009.87
2016-09-21T11:54:41.456Z,1009.83
2016-09-21T11:55:41.392Z,1009.83
2016-09-21T11:56:41.463Z,1009.82
2016-09-21T11:57:41.437Z,1009.78
2016-09-21T11:58:41.564Z,1009.78
2016-09-21T11:59:41.954Z,1009.8
2016-09-21T12:00:41.823Z,1009.75
2016-09-21T12:01:41.607Z,1009.73
2016-09-21T12:02:41.700Z,1009.78
2016-09-21T12:03:42.350Z,1009.76
2016-09-21T12:04:42.114Z,1009.79
2016-09-21T12:05:41.794Z,1009.8
2016-09-21T12:06:41.796Z,1009.8
2016-09-21T12:07:42.021Z,1009.76
2016-09-21T12:08:42.171Z,1009.82
2016-09-21T12:09:41.755Z,1009.81
2016-09-21T12:10:42.014Z,1009.77
2016-09-21T12:11:41.816Z,1009.8
2016-09-21T12:12:41.871Z,1009.76
2016-09-21T12:13:42.074Z,1009.76
2016-09-21T12:14:42.016Z,1009.77
2016-09-21T12:15:42.707Z,1009.78
2016-09-21T12:16:42.089Z,1009.82
2016-09-21T12:17:42.163Z,1009.82
2016-09-21T12:18:42.513Z,1009.83
2016-09-21T12:19:42.233Z,1009.78